Time;durP1;ratioP1;P1;durP2;ratioP2;P2;SDS_P1;SDS_P2;PMS_P1;PMS_P2;Temp;Humidity;BMP_temperature;BMP_pressure;BME280_temperature;BME280_humidity;BME280_pressure;Samples;Min_cycle;Max_cycle;Signal;HPM_P1;HPM_P2
2023/09/21 00:00:38;;;;;;;3.37;1.90;;;;;;;14.81;100.00;149805.13;4917064;28;20240;-60
2023/09/21 00:03:07;;;;;;;7.97;1.97;;;;;;;14.79;100.00;149801.41;4920170;28;20890;-59
2023/09/21 00:05:40;;;;;;;4.27;1.93;;;;;;;14.79;100.00;149800.13;4913343;28;20234;-61
2023/09/21 00:08:07;;;;;;;2.67;1.80;;;;;;;14.83;100.00;149810.13;4916328;28;20234;-60
2023/09/21 00:10:38;;;;;;;5.03;2.00;;;;;;;14.83;100.00;149810.13;4912445;28;20267;-60
2023/09/21 00:13:04;;;;;;;4.27;2.20;;;;;;;14.80;100.00;149803.91;4914752;28;20238;-60
2023/09/21 00:15:59;;;;;;;2.93;2.10;;;;;;;14.90;100.00;149827.63;4914348;28;20238;-60
2023/09/21 00:18:26;;;;;;;4.10;2.10;;;;;;;14.86;100.00;149818.84;4911169;28;20238;-60
2023/09/21 00:20:53;;;;;;;4.90;2.23;;;;;;;14.99;100.00;149848.81;4915526;28;20221;-60
2023/09/21 00:23:21;;;;;;;3.90;1.97;;;;;;;14.96;100.00;149842.59;4918248;28;20227;-61
2023/09/21 00:25:47;;;;;;;3.43;2.10;;;;;;;15.03;100.00;149860.09;4916183;28;20230;-60
2023/09/21 00:28:14;;;;;;;3.40;2.20;;;;;;;15.03;100.00;149858.81;4920511;28;20359;-60
2023/09/21 00:30:41;;;;;;;6.83;2.70;;;;;;;15.11;100.00;149877.56;4914026;28;20237;-60
2023/09/21 00:33:09;;;;;;;4.87;2.20;;;;;;;15.08;100.00;149871.31;4927669;28;20234;-61
2023/09/21 00:35:39;;;;;;;5.17;2.03;;;;;;;15.14;100.00;149886.31;4918956;28;20263;-60
2023/09/21 00:38:08;;;;;;;4.73;2.33;;;;;;;15.21;100.00;149902.56;4912087;29;20722;-60
2023/09/21 00:40:39;;;;;;;4.90;1.80;;;;;;;15.28;100.00;149920.06;4928176;28;20283;-61
2023/09/21 00:43:09;;;;;;;2.63;2.20;;;;;;;15.22;100.00;149903.78;4914453;28;20229;-61
2023/09/21 00:45:39;;;;;;;2.47;1.77;;;;;;;15.26;100.00;149913.78;4917270;28;20320;-60
2023/09/21 00:48:09;;;;;;;2.60;1.83;;;;;;;15.29;100.00;149921.28;4922017;28;20316;-60
2023/09/21 00:50:41;;;;;;;2.80;1.63;;;;;;;15.43;100.00;149954.97;4924879;28;20224;-60
2023/09/21 00:53:12;;;;;;;3.37;1.60;;;;;;;15.41;100.00;149951.25;4919227;28;20234;-60
2023/09/21 00:55:40;;;;;;;3.07;1.73;;;;;;;15.43;100.00;149954.97;4931251;28;20227;-60
2023/09/21 00:58:08;;;;;;;5.13;1.87;;;;;;;15.48;100.00;149967.47;4919666;29;20231;-60
2023/09/21 01:00:39;;;;;;;4.73;1.70;;;;;;;15.48;100.00;149968.75;4915617;28;20608;-60
2023/09/21 01:03:11;;;;;;;3.07;1.77;;;;;;;15.57;99.54;149988.75;4916656;29;20234;-60
2023/09/21 01:05:42;;;;;;;3.70;1.90;;;;;;;15.62;99.18;150001.25;4917134;28;20238;-59
2023/09/21 01:08:12;;;;;;;6.10;2.27;;;;;;;15.65;100.00;150009.97;4920599;28;20296;-60
2023/09/21 01:10:40;;;;;;;7.60;1.83;;;;;;;15.78;97.85;150039.94;4915539;28;20251;-60
2023/09/21 01:13:11;;;;;;;4.00;1.90;;;;;;;15.78;97.99;150041.22;4917521;28;20696;-60
2023/09/21 01:15:38;;;;;;;3.73;1.97;;;;;;;15.80;98.38;150044.97;4915414;28;20236;-60
2023/09/21 01:18:07;;;;;;;5.20;2.10;;;;;;;15.86;98.85;150059.94;4927095;28;20228;-59
2023/09/21 01:20:38;;;;;;;4.27;1.93;;;;;;;15.88;99.48;150063.78;4917485;28;20314;-60
2023/09/21 01:23:17;;;;;;;2.83;1.90;;;;;;;15.91;100.00;150071.22;4918295;28;20224;-59
2023/09/21 01:25:46;;;;;;;2.77;1.90;;;;;;;15.90;100.00;150068.78;4916939;28;20366;-60
2023/09/21 01:28:16;;;;;;;4.27;2.00;;;;;;;15.90;100.00;150068.78;4918692;28;20285;-60
2023/09/21 01:30:44;;;;;;;3.60;1.93;;;;;;;15.91;100.00;150072.50;4924768;28;20238;-60
2023/09/21 01:33:11;;;;;;;2.87;1.80;;;;;;;15.89;100.00;150066.28;4917201;28;20251;-60
2023/09/21 01:35:38;;;;;;;4.90;2.13;;;;;;;15.90;100.00;150070.00;4918779;28;20228;-60
2023/09/21 01:38:06;;;;;;;6.03;1.80;;;;;;;15.89;100.00;150067.50;4930515;28;20680;-60
2023/09/21 01:40:38;;;;;;;5.10;1.87;;;;;;;15.88;100.00;150063.78;4918742;28;20752;-60
2023/09/21 01:43:08;;;;;;;3.33;1.83;;;;;;;15.89;100.00;150067.50;4918800;28;20349;-60
2023/09/21 01:45:40;;;;;;;4.13;1.80;;;;;;;15.94;100.00;150080.00;4931734;28;20238;-60
2023/09/21 01:48:08;;;;;;;3.73;2.07;;;;;;;15.97;100.00;150086.22;4919700;28;20248;-60
2023/09/21 01:50:43;;;;;;;4.47;2.23;;;;;;;15.95;100.00;150081.22;4916154;28;20231;-60
2023/09/21 01:53:10;;;;;;;6.07;1.77;;;;;;;15.93;100.00;150077.50;4918386;28;20351;-60
2023/09/21 01:55:38;;;;;;;3.03;2.07;;;;;;;16.02;100.00;150097.50;4920785;28;20247;-60
2023/09/21 01:58:08;;;;;;;2.90;1.87;;;;;;;16.06;100.00;150108.72;4933041;28;20234;-60
2023/09/21 02:00:39;;;;;;;3.03;2.10;;;;;;;16.04;100.00;150103.72;4917030;28;20234;-60
2023/09/21 02:03:09;;;;;;;3.37;2.10;;;;;;;16.14;100.00;150127.50;4919424;28;20250;-60
2023/09/21 02:05:37;;;;;;;3.87;1.80;;;;;;;16.13;100.00;150125.00;4915807;28;20227;-60
2023/09/21 02:08:05;;;;;;;3.40;1.87;;;;;;;16.15;100.00;150130.00;4920255;28;20231;-60
2023/09/21 02:10:40;;;;;;;3.83;1.80;;;;;;;16.25;99.66;150153.72;4916011;28;20227;-60
2023/09/21 02:13:08;;;;;;;3.77;1.80;;;;;;;16.32;100.00;150170.00;4932782;28;20288;-60
2023/09/21 02:15:39;;;;;;;2.77;1.73;;;;;;;16.48;97.28;150208.72;4916561;28;20250;-60
2023/09/21 02:18:07;;;;;;;5.43;1.70;;;;;;;16.53;98.23;150222.44;4934686;28;20227;-60
2023/09/21 02:20:41;;;;;;;3.73;1.80;;;;;;;16.58;98.04;150233.72;4932949;28;20302;-60
2023/09/21 02:23:08;;;;;;;3.70;2.07;;;;;;;16.64;97.61;150247.44;4922228;28;20243;-60
2023/09/21 02:25:40;;;;;;;2.57;1.40;;;;;;;16.62;97.44;150243.72;4916502;28;20231;-60
2023/09/21 02:28:11;;;;;;;4.57;1.43;;;;;;;16.65;97.04;150251.22;4929285;28;20329;-60
2023/09/21 02:30:40;;;;;;;3.90;2.00;;;;;;;16.73;97.91;150268.75;4918545;28;20274;-60
2023/09/21 02:33:08;;;;;;;4.30;1.97;;;;;;;16.74;96.87;150271.22;4918944;28;20237;-60
2023/09/21 02:35:41;;;;;;;5.57;2.13;;;;;;;16.78;96.37;150281.25;4915245;28;20230;-60
2023/09/21 02:38:09;;;;;;;4.77;2.00;;;;;;;16.87;97.23;150303.75;4914858;28;20218;-60
2023/09/21 02:40:38;;;;;;;2.60;1.83;;;;;;;16.95;95.38;150323.75;4913971;28;20239;-60
2023/09/21 02:43:07;;;;;;;3.77;2.00;;;;;;;17.04;94.40;150343.75;4915964;28;20224;-60
2023/09/21 02:45:39;;;;;;;2.93;1.80;;;;;;;17.11;93.81;150361.28;4933004;28;20687;-61
2023/09/21 02:48:07;;;;;;;2.73;2.00;;;;;;;17.14;93.92;150368.78;4915917;28;20905;-60
2023/09/21 02:50:38;;;;;;;4.77;2.00;;;;;;;17.18;92.89;150378.78;4922761;28;20232;-60
2023/09/21 02:53:09;;;;;;;3.70;1.90;;;;;;;17.33;94.40;150415.09;4933969;28;20224;-60
2023/09/21 02:55:39;;;;;;;3.63;1.67;;;;;;;17.38;92.24;150426.31;4915003;28;20236;-60
2023/09/21 02:58:10;;;;;;;2.80;1.50;;;;;;;17.36;92.56;150422.59;4916595;28;20328;-60
2023/09/21 03:00:45;;;;;;;4.83;1.90;;;;;;;17.36;92.35;150422.59;4911140;28;20730;-60
2023/09/21 03:03:14;;;;;;;4.27;2.00;;;;;;;17.38;94.69;150427.59;4931321;28;20665;-60
2023/09/21 03:05:46;;;;;;;4.87;2.17;;;;;;;17.32;96.35;150411.31;4915437;28;20228;-60
2023/09/21 03:08:14;;;;;;;2.27;1.97;;;;;;;17.23;98.63;150391.28;4917402;28;20242;-61
2023/09/21 03:10:43;;;;;;;2.60;1.70;;;;;;;17.17;98.91;150376.28;4912365;28;20720;-61
2023/09/21 03:13:17;;;;;;;3.70;1.80;;;;;;;17.14;99.87;150367.56;4929998;28;20230;-60
2023/09/21 03:15:47;;;;;;;3.43;1.90;;;;;;;17.14;100.00;150368.78;4910882;28;20328;-60
2023/09/21 03:18:14;;;;;;;2.97;1.80;;;;;;;17.09;100.00;150357.53;4930879;28;20239;-60
2023/09/21 03:20:43;;;;;;;5.00;1.70;;;;;;;17.11;99.07;150362.53;4929297;28;20778;-60
2023/09/21 03:23:12;;;;;;;5.83;1.90;;;;;;;17.12;98.13;150363.78;4916966;28;20242;-61
2023/09/21 03:25:41;;;;;;;2.63;2.00;;;;;;;17.10;99.67;150360.03;4932000;28;20696;-60
2023/09/21 03:28:13;;;;;;;5.03;2.00;;;;;;;17.08;100.00;150353.78;4931547;28;20254;-60
2023/09/21 03:33:10;;;;;;;4.33;2.07;;;;;;;17.04;100.00;150345.03;4919982;29;20220;-60
2023/09/21 03:35:38;;;;;;;3.63;1.73;;;;;;;17.08;100.00;150355.03;4924176;28;20257;-61
2023/09/21 03:38:06;;;;;;;3.33;2.10;;;;;;;17.09;100.00;150356.28;4927726;28;20227;-60
2023/09/21 03:40:37;;;;;;;3.70;2.00;;;;;;;17.05;100.00;150346.25;4939471;28;20237;-60
2023/09/21 03:43:06;;;;;;;2.90;1.67;;;;;;;17.08;100.00;150353.78;4907332;29;20245;-60
2023/09/21 03:45:38;;;;;;;8.27;2.40;;;;;;;17.09;100.00;150357.53;4908212;28;20592;-61
2023/09/21 03:48:08;;;;;;;5.47;2.27;;;;;;;17.11;100.00;150362.53;4907824;29;20316;-60
2023/09/21 03:50:41;;;;;;;7.50;2.70;;;;;;;16.78;98.25;150282.47;4920446;28;20229;-60
2023/09/21 03:53:09;;;;;;;8.03;3.07;;;;;;;16.49;100.00;150211.22;4922126;29;20264;-60
2023/09/21 03:55:38;;;;;;;4.20;2.60;;;;;;;16.28;100.00;150160.00;4904963;28;20232;-61
2023/09/21 03:58:06;;;;;;;4.67;3.00;;;;;;;16.18;100.00;150136.22;4907732;29;20232;-60
2023/09/21 04:00:37;;;;;;;9.40;2.70;;;;;;;16.14;100.00;150126.22;4906024;28;20751;-60
2023/09/21 04:03:06;;;;;;;5.77;2.80;;;;;;;16.12;100.00;150121.22;4908754;28;20245;-60
2023/09/21 04:05:47;;;;;;;5.70;2.83;;;;;;;16.06;100.00;150108.72;4920408;28;23020;-60
2023/09/21 04:08:14;;;;;;;3.40;2.47;;;;;;;16.01;100.00;150096.22;4916454;28;20233;-60
2023/09/21 04:10:41;;;;;;;3.93;2.60;;;;;;;15.98;100.00;150088.72;4904566;28;20302;-60
2023/09/21 04:13:08;;;;;;;4.57;2.50;;;;;;;16.08;100.00;150112.50;4907464;28;20231;-61
2023/09/21 04:15:37;;;;;;;5.93;2.93;;;;;;;16.04;100.00;150103.72;4906098;28;20280;-59
2023/09/21 04:18:09;;;;;;;6.00;3.00;;;;;;;16.00;100.00;150093.72;4922035;28;20312;-60
2023/09/21 04:20:40;;;;;;;5.93;2.73;;;;;;;15.96;100.00;150083.72;4921239;28;20224;-60
2023/09/21 04:23:08;;;;;;;4.33;2.80;;;;;;;15.94;100.00;150080.00;4910883;29;20298;-60
2023/09/21 04:25:38;;;;;;;3.50;2.30;;;;;;;15.97;100.00;150086.22;4924271;28;20260;-60
2023/09/21 04:28:05;;;;;;;4.50;2.83;;;;;;;15.92;100.00;150073.72;4926973;28;20239;-60
2023/09/21 04:30:38;;;;;;;3.57;2.47;;;;;;;15.99;100.00;150090.00;4912797;28;20238;-60
2023/09/21 04:33:05;;;;;;;4.07;2.27;;;;;;;16.01;100.00;150095.00;4910875;29;20228;-60
2023/09/21 04:35:37;;;;;;;6.73;2.90;;;;;;;16.03;100.00;150101.22;4908815;28;20241;-60
2023/09/21 04:38:04;;;;;;;4.60;2.53;;;;;;;16.18;100.00;150137.50;4926643;28;20671;-60
2023/09/21 04:40:57;;;;;;;6.70;2.80;;;;;;;16.33;100.00;150173.72;4909124;28;20372;-60
2023/09/21 04:43:23;;;;;;;3.13;2.30;;;;;;;16.43;100.00;150196.22;4917388;28;20235;-60
2023/09/21 04:45:51;;;;;;;6.10;2.30;;;;;;;16.55;100.00;150224.94;4908414;28;20225;-60
2023/09/21 04:48:17;;;;;;;3.43;1.97;;;;;;;16.57;100.00;150231.22;4926399;28;20235;-62
2023/09/21 04:50:48;;;;;;;2.87;1.87;;;;;;;16.68;100.00;150258.72;4906751;28;20225;-60
2023/09/21 04:53:15;;;;;;;3.97;1.97;;;;;;;16.79;100.00;150283.75;4909269;28;20260;-61
2023/09/21 04:55:42;;;;;;;5.90;2.33;;;;;;;16.83;100.00;150293.75;4908140;28;20228;-60
2023/09/21 04:58:10;;;;;;;3.40;2.00;;;;;;;16.88;100.00;150306.25;4910239;29;20261;-60
2023/09/21 05:00:37;;;;;;;2.90;1.90;;;;;;;17.05;100.00;150346.25;4907432;28;20296;-60
2023/09/21 05:03:06;;;;;;;3.50;1.97;;;;;;;17.16;100.00;150372.56;4909561;29;20232;-60
2023/09/21 05:05:37;;;;;;;3.40;1.80;;;;;;;17.06;100.00;150348.78;4923681;28;20312;-60
2023/09/21 05:08:04;;;;;;;3.67;2.20;;;;;;;17.05;100.00;150347.53;4925934;28;20243;-60
2023/09/21 05:10:56;;;;;;;4.27;2.00;;;;;;;17.14;100.00;150367.56;4909053;28;20247;-60
2023/09/21 05:13:24;;;;;;;4.00;1.70;;;;;;;17.13;100.00;150366.28;4909488;29;20232;-60
2023/09/21 05:15:51;;;;;;;2.40;1.70;;;;;;;17.17;100.00;150375.06;4908308;28;20296;-60
2023/09/21 05:18:18;;;;;;;2.50;1.50;;;;;;;17.26;100.00;150397.56;4911335;29;20224;-60
2023/09/21 05:20:45;;;;;;;3.73;1.63;;;;;;;17.44;97.78;150441.31;4908412;28;20243;-60
2023/09/21 05:23:11;;;;;;;2.57;1.60;;;;;;;17.51;98.20;150458.84;4911080;28;20239;-60
2023/09/21 05:25:38;;;;;;;3.03;1.50;;;;;;;17.56;96.60;150470.06;4908463;28;20331;-60
2023/09/21 05:28:05;;;;;;;4.10;1.57;;;;;;;17.58;96.34;150475.06;4911287;28;20238;-60
2023/09/21 05:30:39;;;;;;;1.90;1.40;;;;;;;17.58;95.43;150473.84;4908758;28;20227;-60
2023/09/21 05:33:07;;;;;;;2.80;1.27;;;;;;;17.66;96.07;150493.88;4909626;28;20235;-60
2023/09/21 05:35:37;;;;;;;2.63;1.40;;;;;;;17.65;94.38;150492.59;4909006;28;20896;-60
2023/09/21 05:38:05;;;;;;;2.93;1.10;;;;;;;17.70;95.68;150505.09;4911360;28;20242;-60
2023/09/21 05:40:40;;;;;;;2.97;1.40;;;;;;;17.82;93.67;150533.91;4908485;28;20233;-60
2023/09/21 05:43:07;;;;;;;2.40;1.47;;;;;;;17.83;92.31;150536.41;4909684;28;20254;-60
2023/09/21 05:45:39;;;;;;;2.53;1.47;;;;;;;17.87;90.30;150545.13;4908641;28;20243;-60
2023/09/21 05:48:14;;;;;;;3.53;1.70;;;;;;;18.02;91.29;150580.22;4910462;28;20243;-60
2023/09/21 05:50:41;;;;;;;3.33;1.30;;;;;;;18.07;88.61;150593.97;4906877;28;20721;-60
2023/09/21 05:53:08;;;;;;;2.47;1.33;;;;;;;18.09;88.18;150598.97;4910684;28;20233;-60
2023/09/21 05:55:37;;;;;;;4.10;1.33;;;;;;;18.15;88.08;150614.00;4908650;28;20289;-60
2023/09/21 05:58:05;;;;;;;1.83;1.10;;;;;;;18.14;89.84;150611.47;4910469;28;20251;-60
2023/09/21 06:00:40;;;;;;;2.63;1.30;;;;;;;18.17;91.63;150617.75;4907207;28;20235;-61
2023/09/21 06:03:07;;;;;;;1.67;1.30;;;;;;;18.18;89.66;150620.25;4909849;28;20241;-60
2023/09/21 06:05:37;;;;;;;2.00;0.80;;;;;;;18.33;87.13;150655.31;4908042;28;20238;-60
2023/09/21 06:08:05;;;;;;;4.13;1.20;;;;;;;18.48;84.94;150691.59;4909917;28;20292;-60
2023/09/21 06:10:37;;;;;;;1.57;0.87;;;;;;;18.59;85.98;150719.13;4907936;28;20699;-60
2023/09/21 06:13:07;;;;;;;2.57;0.90;;;;;;;18.71;87.17;150749.16;4910123;28;20324;-60
2023/09/21 06:15:46;;;;;;;1.80;1.00;;;;;;;18.70;87.50;150745.38;4907238;28;20226;-60
2023/09/21 06:18:14;;;;;;;1.77;1.03;;;;;;;18.68;89.49;150741.66;4910366;28;20221;-60
2023/09/21 06:20:42;;;;;;;2.43;1.40;;;;;;;18.64;89.96;150731.63;4906831;28;20618;-60
2023/09/21 06:23:09;;;;;;;1.97;0.80;;;;;;;18.66;85.98;150735.38;4910182;28;20276;-61
2023/09/21 06:25:37;;;;;;;2.17;1.00;;;;;;;18.61;90.15;150722.84;4906562;28;20320;-61
2023/09/21 06:28:05;;;;;;;3.17;0.83;;;;;;;18.54;92.51;150707.88;4924668;28;20623;-61
2023/09/21 06:30:39;;;;;;;1.87;1.00;;;;;;;18.49;92.62;150695.38;4907073;28;20260;-61
2023/09/21 06:33:06;;;;;;;5.43;1.10;;;;;;;18.46;91.89;150686.56;4909751;28;20234;-61
2023/09/21 06:35:37;;;;;;;4.03;1.60;;;;;;;18.45;91.87;150685.34;4907462;28;20236;-60
2023/09/21 06:38:04;;;;;;;1.40;0.83;;;;;;;18.49;93.03;150694.09;4910603;28;20226;-61
2023/09/21 06:40:37;;;;;;;2.17;1.10;;;;;;;18.48;92.89;150691.59;4907159;28;20616;-60
2023/09/21 06:43:07;;;;;;;1.83;1.10;;;;;;;18.53;94.31;150705.38;4909591;28;20815;-60
2023/09/21 06:45:40;;;;;;;3.77;2.57;;;;;;;18.43;90.65;150680.34;4908144;28;20637;-60
2023/09/21 06:48:08;;;;;;;5.73;2.83;;;;;;;18.03;91.82;150582.72;4909832;28;20616;-60
2023/09/21 06:50:40;;;;;;;5.13;2.50;;;;;;;17.85;94.86;150540.13;4907106;28;20600;-61
2023/09/21 06:53:07;;;;;;;7.03;2.90;;;;;;;17.72;94.52;150508.88;4909738;29;20232;-60
2023/09/21 06:55:37;;;;;;;4.13;3.00;;;;;;;17.68;95.04;150498.88;4906882;28;20239;-60
2023/09/21 06:58:06;;;;;;;4.30;2.83;;;;;;;17.65;96.72;150491.38;4909088;28;20752;-60
2023/09/21 07:00:38;;;;;;;4.77;3.10;;;;;;;17.71;97.74;150506.38;4906589;28;20230;-61
2023/09/21 07:03:06;;;;;;;7.37;2.87;;;;;;;17.76;96.92;150518.88;4909428;28;20240;-60
2023/09/21 07:05:40;;;;;;;6.77;3.00;;;;;;;17.81;97.00;150531.41;4906302;28;20270;-60
2023/09/21 07:08:06;;;;;;;5.90;3.87;;;;;;;17.90;95.89;150552.66;4909882;28;20248;-61
2023/09/21 07:10:37;;;;;;;4.07;3.00;;;;;;;17.86;94.86;150542.63;4906384;28;20640;-61
2023/09/21 07:13:05;;;;;;;6.40;2.83;;;;;;;17.80;94.95;150527.63;4909498;28;20231;-60
2023/09/21 07:15:38;;;;;;;9.73;3.27;;;;;;;17.94;96.13;150561.44;4906222;28;20240;-61
2023/09/21 07:18:06;;;;;;;4.27;2.40;;;;;;;18.07;94.26;150592.75;4909339;28;20673;-61
2023/09/21 07:20:38;;;;;;;3.60;2.53;;;;;;;18.21;92.05;150627.78;4906216;28;20233;-60
2023/09/21 07:25:57;;;;;;;3.53;2.13;;;;;;;18.48;89.48;150691.59;4906175;28;20717;-61
2023/09/21 07:28:23;;;;;;;3.40;2.20;;;;;;;18.65;89.63;150734.13;4908939;28;20245;-61
2023/09/21 07:30:52;;;;;;;5.87;2.63;;;;;;;18.73;89.39;150754.16;4905323;28;20238;-61
2023/09/21 07:33:21;;;;;;;4.83;2.70;;;;;;;18.83;90.60;150776.72;4923099;29;20280;-60
2023/09/21 07:35:48;;;;;;;5.10;2.50;;;;;;;18.83;92.03;150777.94;4906306;28;20240;-61
2023/09/21 07:38:14;;;;;;;4.73;2.47;;;;;;;18.92;91.90;150799.25;4909058;28;20225;-61
2023/09/21 07:40:41;;;;;;;2.73;2.03;;;;;;;19.01;91.64;150820.53;4906074;28;20257;-60
2023/09/21 07:43:08;;;;;;;4.97;2.77;;;;;;;19.02;93.54;150824.31;4907880;28;20233;-61
2023/09/21 07:45:38;;;;;;;5.43;2.77;;;;;;;19.08;93.06;150838.06;4904377;28;20234;-60
2023/09/21 07:48:06;;;;;;;4.80;2.57;;;;;;;19.21;93.03;150869.34;4908424;29;20246;-60
2023/09/21 07:50:39;;;;;;;3.00;2.10;;;;;;;19.24;93.57;150876.88;4905075;28;20306;-60
2023/09/21 07:53:05;;;;;;;4.83;2.50;;;;;;;19.43;94.27;150921.94;4908474;28;20234;-61
2023/09/21 07:55:37;;;;;;;5.93;2.20;;;;;;;19.55;91.76;150950.78;4905498;28;20262;-61
2023/09/21 07:58:04;;;;;;;5.57;2.50;;;;;;;19.72;92.80;150993.31;4908643;28;20230;-61
2023/09/21 08:00:56;;;;;;;6.67;2.40;;;;;;;19.86;92.39;151025.88;4904949;28;20231;-61
2023/09/21 08:03:25;;;;;;;5.97;2.03;;;;;;;20.02;91.78;151066.03;4907904;28;20290;-61
2023/09/21 08:05:54;;;;;;;2.73;2.07;;;;;;;20.15;92.99;151096.09;4905754;28;20257;-61
2023/09/21 08:08:21;;;;;;;4.53;1.53;;;;;;;20.33;90.87;151139.91;4908151;28;20226;-61
2023/09/21 08:10:49;;;;;;;7.97;2.10;;;;;;;20.41;87.45;151159.97;4905536;28;20245;-61
2023/09/21 08:13:16;;;;;;;3.83;1.73;;;;;;;20.29;88.65;151131.16;4908009;29;20232;-61
2023/09/21 08:15:43;;;;;;;2.33;0.90;;;;;;;20.49;82.39;151180.00;4904738;28;20765;-61
2023/09/21 08:18:10;;;;;;;2.03;1.20;;;;;;;20.75;82.89;151241.41;4908026;28;20241;-61
2023/09/21 08:20:39;;;;;;;4.03;1.53;;;;;;;20.85;83.05;151265.28;4904504;28;20239;-61
2023/09/21 08:23:07;;;;;;;3.53;1.50;;;;;;;20.87;83.68;151271.53;4906714;28;20311;-61
2023/09/21 08:25:38;;;;;;;4.10;1.60;;;;;;;20.96;85.61;151292.84;4905472;28;20621;-61
2023/09/21 08:28:05;;;;;;;2.07;1.30;;;;;;;21.07;85.55;151320.44;4908086;28;20243;-61
2023/09/21 08:30:38;;;;;;;3.07;1.10;;;;;;;21.04;85.68;151311.63;4905250;28;20230;-61
2023/09/21 08:33:08;;;;;;;3.93;1.10;;;;;;;21.09;86.43;151324.16;4908942;29;20231;-61
2023/09/21 08:35:37;;;;;;;2.30;0.90;;;;;;;21.27;84.50;151366.78;4905482;28;20308;-61
2023/09/21 08:38:04;;;;;;;2.10;0.70;;;;;;;21.33;75.38;151383.06;4908974;28;20610;-61
2023/09/21 08:40:39;;;;;;;4.53;1.00;;;;;;;21.50;73.49;151424.47;4904296;28;20224;-61
2023/09/21 08:43:05;;;;;;;2.50;1.10;;;;;;;21.72;75.86;151477.16;4907609;28;20224;-61
2023/09/21 08:45:38;;;;;;;1.00;0.77;;;;;;;21.88;71.77;151516.00;4904608;28;20233;-61
2023/09/21 08:48:06;;;;;;;3.13;0.70;;;;;;;21.91;66.45;151523.53;4907737;28;20325;-61
2023/09/21 08:50:40;;;;;;;1.40;0.70;;;;;;;22.23;67.13;151601.31;4905148;28;20241;-61
2023/09/21 08:53:11;;;;;;;2.33;0.80;;;;;;;22.48;68.94;151661.50;4908208;28;20235;-61
2023/09/21 08:55:40;;;;;;;1.70;0.83;;;;;;;22.78;66.98;151734.28;4904196;28;20262;-62
2023/09/21 08:58:09;;;;;;;2.23;0.70;;;;;;;22.98;61.13;151783.19;4907879;28;20227;-61
2023/09/21 09:00:40;;;;;;;1.37;0.87;;;;;;;22.99;57.78;151784.47;4904209;28;20571;-61
2023/09/21 09:03:07;;;;;;;4.33;1.00;;;;;;;23.10;59.97;151812.06;4907766;28;21380;-62
2023/09/21 09:05:38;;;;;;;4.57;0.90;;;;;;;22.90;60.27;151763.09;4905262;28;20627;-61
2023/09/21 09:08:06;;;;;;;2.50;0.80;;;;;;;23.12;61.22;151815.81;4911104;28;20317;-61
2023/09/21 09:10:42;;;;;;;1.20;0.70;;;;;;;23.02;58.05;151790.72;4908852;28;20250;-61
2023/09/21 09:13:09;;;;;;;2.13;0.60;;;;;;;23.29;58.63;151857.28;4910736;28;20218;-61
2023/09/21 09:15:38;;;;;;;4.27;0.83;;;;;;;23.20;58.85;151834.66;4907466;28;20229;-61
2023/09/21 09:18:06;;;;;;;1.63;0.80;;;;;;;23.52;57.87;151912.47;4911254;28;20229;-61
2023/09/21 09:20:38;;;;;;;1.60;0.73;;;;;;;23.81;58.26;151982.75;4908769;28;20585;-61
2023/09/21 09:23:09;;;;;;;2.30;0.90;;;;;;;23.74;56.53;151966.47;4911052;28;20573;-61
2023/09/21 09:25:38;;;;;;;1.43;0.80;;;;;;;23.98;55.36;152025.44;4907910;28;20274;-61
2023/09/21 09:28:07;;;;;;;2.30;0.77;;;;;;;24.13;55.60;152060.66;4911227;28;20314;-61
2023/09/21 09:30:38;;;;;;;2.53;0.87;;;;;;;24.14;55.90;152063.16;4907835;28;20286;-61
2023/09/21 09:33:09;;;;;;;2.17;1.10;;;;;;;24.11;58.09;152055.63;4910653;28;20576;-61
2023/09/21 09:35:38;;;;;;;3.03;1.27;;;;;;;24.00;60.93;152030.50;4922803;28;20765;-61
2023/09/21 09:38:08;;;;;;;1.30;1.00;;;;;;;23.96;59.87;152020.41;4926302;29;20306;-61
2023/09/21 09:40:38;;;;;;;1.93;1.07;;;;;;;24.18;58.65;152073.19;4908185;28;20230;-61
2023/09/21 09:43:06;;;;;;;3.53;0.77;;;;;;;24.34;55.80;152110.88;4911093;29;20230;-61
2023/09/21 09:45:38;;;;;;;2.33;0.93;;;;;;;24.28;55.21;152098.31;4928081;23;20241;-60
2023/09/21 09:48:11;;;;;;;2.50;1.50;;;;;;;24.46;60.19;152140.97;4922528;28;20643;-60
2023/09/21 09:50:41;;;;;;;4.60;1.70;;;;;;;24.20;62.59;152078.22;4918472;28;20233;-59
2023/09/21 09:53:12;;;;;;;6.33;1.80;;;;;;;23.72;66.58;151962.69;4900390;29;20238;-60
2023/09/21 09:55:42;;;;;;;9.77;2.87;;;;;;;23.65;68.12;151943.88;4894526;29;20250;-60
2023/09/21 09:58:11;;;;;;;14.23;2.77;;;;;;;23.77;66.21;151972.72;4904188;29;20219;-59
2023/09/21 10:00:40;;;;;;;5.47;2.30;;;;;;;23.92;63.76;152010.38;4896661;28;20686;-59
2023/09/21 10:03:09;;;;;;;8.37;2.60;;;;;;;23.90;65.80;152005.34;4896580;29;20250;-60
2023/09/21 10:05:38;;;;;;;8.50;2.67;;;;;;;23.90;63.79;152005.34;4897999;29;20258;-60
2023/09/21 10:08:07;;;;;;;3.47;1.80;;;;;;;23.91;64.08;152007.88;4900039;29;20229;-60
2023/09/21 10:10:42;;;;;;;6.77;1.97;;;;;;;24.16;63.54;152068.19;4896190;29;20271;-60
2023/09/21 10:13:10;;;;;;;2.50;1.63;;;;;;;24.40;61.49;152125.88;4897034;29;20247;-60
2023/09/21 10:15:38;;;;;;;4.37;1.40;;;;;;;24.40;62.45;152125.88;4894634;29;20242;-59
2023/09/21 10:18:05;;;;;;;3.10;1.20;;;;;;;24.58;61.72;152171.09;4897849;28;20561;-60
2023/09/21 10:20:58;;;;;;;5.97;1.87;;;;;;;24.81;60.73;152225.16;4897444;28;20287;-59
2023/09/21 10:23:27;;;;;;;3.87;1.50;;;;;;;24.90;63.93;152247.78;4898551;29;20712;-60
2023/09/21 10:25:55;;;;;;;3.70;1.63;;;;;;;25.05;62.12;152284.19;4897546;29;20304;-60
2023/09/21 10:28:37;;;;;;;2.70;1.83;;;;;;;24.64;62.09;152184.94;4901348;29;20243;-60
2023/09/21 10:31:23;;;;;;;5.53;1.90;;;;;;;24.63;62.69;152182.41;4898643;29;20242;-59
2023/09/21 10:34:08;;;;;;;2.00;1.10;;;;;;;24.93;55.79;152255.25;4896364;29;20264;-60
2023/09/21 10:36:37;;;;;;;3.03;1.20;;;;;;;24.79;56.44;152221.38;4898912;29;20294;-60
2023/09/21 10:39:26;;;;;;;2.80;0.90;;;;;;;24.90;55.18;152249.00;4897160;29;20232;-60
2023/09/21 10:41:54;;;;;;;2.53;0.70;;;;;;;25.08;53.06;152291.72;4899255;29;20252;-61
2023/09/21 10:44:56;;;;;;;1.93;0.80;;;;;;;24.81;55.29;152226.41;4900921;29;20230;-60
2023/09/21 10:47:28;;;;;;;2.37;1.00;;;;;;;25.52;57.95;152398.53;4898374;29;20299;-60
2023/09/21 10:49:57;;;;;;;4.27;2.07;;;;;;;25.52;61.16;152397.25;4898652;29;20246;-60
2023/09/21 10:52:26;;;;;;;4.93;1.83;;;;;;;25.71;60.47;152443.75;4899630;29;20650;-61
2023/09/21 10:54:52;;;;;;;4.00;1.90;;;;;;;25.96;57.74;152505.31;4896899;29;20239;-60
2023/09/21 10:57:24;;;;;;;5.00;2.20;;;;;;;25.92;59.78;152496.53;4897790;29;20232;-60
2023/09/21 10:59:52;;;;;;;4.53;1.80;;;;;;;25.89;60.51;152487.72;4896417;29;20733;-60
2023/09/21 11:02:20;;;;;;;2.53;1.80;;;;;;;25.90;59.03;152491.50;4900766;29;20610;-61
2023/09/21 11:04:48;;;;;;;3.67;1.50;;;;;;;26.27;57.19;152580.75;4895949;29;20235;-61
2023/09/21 11:07:16;;;;;;;3.73;1.97;;;;;;;26.35;57.73;152600.88;4900562;29;20660;-61
2023/09/21 11:09:43;;;;;;;5.73;1.80;;;;;;;26.15;57.62;152550.59;4896650;29;20891;-60
2023/09/21 11:12:13;;;;;;;3.27;1.70;;;;;;;26.09;56.08;152537.97;4897711;29;20217;-60
2023/09/21 11:14:43;;;;;;;4.27;1.80;;;;;;;25.98;59.28;152510.34;4896785;29;20236;-61
2023/09/21 11:17:12;;;;;;;2.67;1.80;;;;;;;26.06;60.13;152529.16;4899285;29;20224;-61
2023/09/21 11:19:42;;;;;;;2.47;1.80;;;;;;;26.09;58.13;152536.69;4895006;29;20916;-61
2023/09/21 11:22:09;;;;;;;2.73;1.70;;;;;;;26.16;57.78;152553.13;4899156;29;20300;-61
2023/09/21 11:24:37;;;;;;;1.93;1.07;;;;;;;26.11;52.00;152540.50;4893452;29;20234;-61
2023/09/21 11:27:06;;;;;;;3.37;1.57;;;;;;;25.17;58.75;152313.03;4896614;29;20233;-61
2023/09/21 11:29:34;;;;;;;5.43;1.90;;;;;;;25.71;58.76;152443.75;4894411;29;20230;-60
2023/09/21 11:32:01;;;;;;;4.47;1.80;;;;;;;25.69;59.13;152438.72;4899474;29;20734;-61
2023/09/21 11:34:29;;;;;;;5.47;1.80;;;;;;;25.71;58.77;152445.00;4897242;28;20231;-60
2023/09/21 11:36:58;;;;;;;2.27;1.67;;;;;;;25.62;59.63;152423.66;4898924;29;20781;-61
2023/09/21 11:39:29;;;;;;;6.17;1.80;;;;;;;25.94;59.24;152500.28;4900653;29;20252;-61